sensor_id;sensor_type;location;lat;lon;timestamp;P1;durP1;ratioP1;P2;durP2;ratioP2
23302;SDS011;11820;48.738;9.092;2023-04-06T00:01:18;3.63;;;3.33;;
23302;SDS011;11820;48.738;9.092;2023-04-06T00:03:44;4.60;;;3.90;;
23302;SDS011;11820;48.738;9.092;2023-04-06T00:06:09;5.50;;;4.10;;
23302;SDS011;11820;48.738;9.092;2023-04-06T00:08:35;4.03;;;3.63;;
23302;SDS011;11820;48.738;9.092;2023-04-06T00:11:00;5.90;;;4.07;;
23302;SDS011;11820;48.738;9.092;2023-04-06T00:13:25;3.97;;;3.63;;
23302;SDS011;11820;48.738;9.092;2023-04-06T00:15:51;4.33;;;3.93;;
23302;SDS011;11820;48.738;9.092;2023-04-06T00:18:16;5.17;;;4.17;;
23302;SDS011;11820;48.738;9.092;2023-04-06T00:20:41;4.73;;;4.07;;
23302;SDS011;11820;48.738;9.092;2023-04-06T00:23:07;5.67;;;4.40;;
23302;SDS011;11820;48.738;9.092;2023-04-06T00:25:32;5.33;;;4.53;;
23302;SDS011;11820;48.738;9.092;2023-04-06T00:27:57;5.73;;;4.60;;
23302;SDS011;11820;48.738;9.092;2023-04-06T00:30:23;9.03;;;4.50;;
23302;SDS011;11820;48.738;9.092;2023-04-06T00:32:48;6.43;;;5.10;;
23302;SDS011;11820;48.738;9.092;2023-04-06T00:35:13;6.23;;;5.63;;
23302;SDS011;11820;48.738;9.092;2023-04-06T00:37:40;7.87;;;5.70;;
23302;SDS011;11820;48.738;9.092;2023-04-06T00:40:05;6.47;;;5.10;;
23302;SDS011;11820;48.738;9.092;2023-04-06T00:42:31;8.13;;;5.03;;
23302;SDS011;11820;48.738;9.092;2023-04-06T00:44:58;6.13;;;5.20;;
23302;SDS011;11820;48.738;9.092;2023-04-06T00:47:24;6.67;;;4.70;;
23302;SDS011;11820;48.738;9.092;2023-04-06T00:49:50;6.53;;;4.90;;
23302;SDS011;11820;48.738;9.092;2023-04-06T00:52:16;7.67;;;5.80;;
23302;SDS011;11820;48.738;9.092;2023-04-06T00:54:42;7.10;;;6.27;;
23302;SDS011;11820;48.738;9.092;2023-04-06T00:57:07;8.70;;;5.63;;
23302;SDS011;11820;48.738;9.092;2023-04-06T00:59:33;9.07;;;5.13;;
23302;SDS011;11820;48.738;9.092;2023-04-06T01:01:58;7.03;;;4.60;;
23302;SDS011;11820;48.738;9.092;2023-04-06T01:04:24;4.70;;;4.20;;
23302;SDS011;11820;48.738;9.092;2023-04-06T01:06:49;4.70;;;4.20;;
23302;SDS011;11820;48.738;9.092;2023-04-06T01:09:15;4.77;;;4.20;;
23302;SDS011;11820;48.738;9.092;2023-04-06T01:11:41;5.10;;;3.77;;
23302;SDS011;11820;48.738;9.092;2023-04-06T01:14:06;9.40;;;4.67;;
23302;SDS011;11820;48.738;9.092;2023-04-06T01:16:32;4.90;;;4.10;;
23302;SDS011;11820;48.738;9.092;2023-04-06T01:18:58;4.87;;;4.27;;
23302;SDS011;11820;48.738;9.092;2023-04-06T01:21:23;4.37;;;3.97;;
23302;SDS011;11820;48.738;9.092;2023-04-06T01:23:48;5.93;;;4.67;;
23302;SDS011;11820;48.738;9.092;2023-04-06T01:26:14;4.57;;;4.07;;
23302;SDS011;11820;48.738;9.092;2023-04-06T01:28:39;5.40;;;4.50;;
23302;SDS011;11820;48.738;9.092;2023-04-06T01:31:08;5.67;;;4.40;;
23302;SDS011;11820;48.738;9.092;2023-04-06T01:33:34;5.07;;;4.23;;
23302;SDS011;11820;48.738;9.092;2023-04-06T01:35:59;6.33;;;4.47;;
23302;SDS011;11820;48.738;9.092;2023-04-06T01:38:25;4.53;;;4.00;;
23302;SDS011;11820;48.738;9.092;2023-04-06T01:40:51;4.97;;;4.43;;
23302;SDS011;11820;48.738;9.092;2023-04-06T01:43:17;9.63;;;4.57;;
23302;SDS011;11820;48.738;9.092;2023-04-06T01:45:42;4.53;;;4.10;;
23302;SDS011;11820;48.738;9.092;2023-04-06T01:48:08;5.37;;;4.60;;
23302;SDS011;11820;48.738;9.092;2023-04-06T01:50:33;6.30;;;5.10;;
23302;SDS011;11820;48.738;9.092;2023-04-06T01:52:58;5.83;;;5.27;;
23302;SDS011;11820;48.738;9.092;2023-04-06T01:55:24;7.80;;;4.97;;
23302;SDS011;11820;48.738;9.092;2023-04-06T01:57:49;5.20;;;4.70;;
23302;SDS011;11820;48.738;9.092;2023-04-06T02:00:15;6.13;;;5.23;;
23302;SDS011;11820;48.738;9.092;2023-04-06T02:02:40;4.93;;;4.40;;
23302;SDS011;11820;48.738;9.092;2023-04-06T02:05:06;5.23;;;4.73;;
23302;SDS011;11820;48.738;9.092;2023-04-06T02:07:32;8.37;;;4.90;;
23302;SDS011;11820;48.738;9.092;2023-04-06T02:09:57;5.90;;;5.30;;
23302;SDS011;11820;48.738;9.092;2023-04-06T02:12:23;7.60;;;5.43;;
23302;SDS011;11820;48.738;9.092;2023-04-06T02:14:48;6.47;;;5.00;;
23302;SDS011;11820;48.738;9.092;2023-04-06T02:17:14;6.13;;;5.53;;
23302;SDS011;11820;48.738;9.092;2023-04-06T02:19:39;6.37;;;5.77;;
23302;SDS011;11820;48.738;9.092;2023-04-06T02:22:05;8.23;;;5.23;;
23302;SDS011;11820;48.738;9.092;2023-04-06T02:24:30;11.87;;;5.50;;
23302;SDS011;11820;48.738;9.092;2023-04-06T02:26:56;6.87;;;5.10;;
23302;SDS011;11820;48.738;9.092;2023-04-06T02:29:21;8.60;;;6.10;;
23302;SDS011;11820;48.738;9.092;2023-04-06T02:31:47;10.80;;;6.43;;
23302;SDS011;11820;48.738;9.092;2023-04-06T02:34:12;7.50;;;5.70;;
23302;SDS011;11820;48.738;9.092;2023-04-06T02:36:42;12.03;;;6.40;;
23302;SDS011;11820;48.738;9.092;2023-04-06T02:39:11;8.83;;;5.97;;
23302;SDS011;11820;48.738;9.092;2023-04-06T02:41:36;7.20;;;6.20;;
23302;SDS011;11820;48.738;9.092;2023-04-06T02:44:02;7.20;;;5.93;;
23302;SDS011;11820;48.738;9.092;2023-04-06T02:46:28;6.83;;;5.80;;
23302;SDS011;11820;48.738;9.092;2023-04-06T02:48:53;6.97;;;5.60;;
23302;SDS011;11820;48.738;9.092;2023-04-06T02:51:18;6.77;;;5.43;;
23302;SDS011;11820;48.738;9.092;2023-04-06T02:53:44;7.03;;;6.33;;
23302;SDS011;11820;48.738;9.092;2023-04-06T02:56:09;6.63;;;5.60;;
23302;SDS011;11820;48.738;9.092;2023-04-06T02:58:35;10.17;;;5.80;;
23302;SDS011;11820;48.738;9.092;2023-04-06T03:01:00;10.37;;;6.80;;
23302;SDS011;11820;48.738;9.092;2023-04-06T03:03:26;7.10;;;6.07;;
23302;SDS011;11820;48.738;9.092;2023-04-06T03:05:51;8.60;;;5.80;;
23302;SDS011;11820;48.738;9.092;2023-04-06T03:08:16;9.03;;;5.80;;
23302;SDS011;11820;48.738;9.092;2023-04-06T03:10:42;8.33;;;5.40;;
23302;SDS011;11820;48.738;9.092;2023-04-06T03:13:07;8.33;;;5.60;;
23302;SDS011;11820;48.738;9.092;2023-04-06T03:15:32;8.43;;;5.60;;
23302;SDS011;11820;48.738;9.092;2023-04-06T03:17:58;7.43;;;5.47;;
23302;SDS011;11820;48.738;9.092;2023-04-06T03:20:23;9.37;;;5.43;;
23302;SDS011;11820;48.738;9.092;2023-04-06T03:22:48;5.83;;;5.23;;
23302;SDS011;11820;48.738;9.092;2023-04-06T03:25:14;6.73;;;5.30;;
23302;SDS011;11820;48.738;9.092;2023-04-06T03:27:39;10.93;;;5.03;;
23302;SDS011;11820;48.738;9.092;2023-04-06T03:30:05;6.80;;;4.93;;
23302;SDS011;11820;48.738;9.092;2023-04-06T03:32:31;7.57;;;5.50;;
23302;SDS011;11820;48.738;9.092;2023-04-06T03:34:56;7.97;;;5.63;;
23302;SDS011;11820;48.738;9.092;2023-04-06T03:37:22;6.70;;;5.47;;
23302;SDS011;11820;48.738;9.092;2023-04-06T03:39:47;8.87;;;5.50;;
23302;SDS011;11820;48.738;9.092;2023-04-06T03:42:13;9.13;;;6.37;;
23302;SDS011;11820;48.738;9.092;2023-04-06T03:44:38;8.67;;;5.80;;
23302;SDS011;11820;48.738;9.092;2023-04-06T03:47:03;9.87;;;6.27;;
23302;SDS011;11820;48.738;9.092;2023-04-06T03:49:29;6.77;;;6.03;;
23302;SDS011;11820;48.738;9.092;2023-04-06T03:51:55;8.90;;;6.00;;
23302;SDS011;11820;48.738;9.092;2023-04-06T03:54:21;7.50;;;6.10;;
23302;SDS011;11820;48.738;9.092;2023-04-06T03:56:46;9.33;;;5.77;;
23302;SDS011;11820;48.738;9.092;2023-04-06T03:59:12;7.77;;;6.10;;
23302;SDS011;11820;48.738;9.092;2023-04-06T04:01:37;6.37;;;5.73;;
23302;SDS011;11820;48.738;9.092;2023-04-06T04:04:04;6.70;;;6.00;;
23302;SDS011;11820;48.738;9.092;2023-04-06T04:06:29;11.70;;;7.10;;
23302;SDS011;11820;48.738;9.092;2023-04-06T04:08:55;10.97;;;6.93;;
23302;SDS011;11820;48.738;9.092;2023-04-06T04:11:20;8.17;;;6.60;;
23302;SDS011;11820;48.738;9.092;2023-04-06T04:13:46;7.53;;;5.80;;
23302;SDS011;11820;48.738;9.092;2023-04-06T04:16:11;8.27;;;6.60;;
23302;SDS011;11820;48.738;9.092;2023-04-06T04:18:36;8.27;;;6.10;;
23302;SDS011;11820;48.738;9.092;2023-04-06T04:21:02;8.37;;;6.23;;
23302;SDS011;11820;48.738;9.092;2023-04-06T04:23:27;7.27;;;6.10;;
23302;SDS011;11820;48.738;9.092;2023-04-06T04:25:53;8.80;;;6.47;;
23302;SDS011;11820;48.738;9.092;2023-04-06T04:28:18;8.77;;;6.57;;
23302;SDS011;11820;48.738;9.092;2023-04-06T04:30:43;8.67;;;6.13;;
23302;SDS011;11820;48.738;9.092;2023-04-06T04:33:08;7.70;;;6.27;;
23302;SDS011;11820;48.738;9.092;2023-04-06T04:35:34;10.23;;;7.00;;
23302;SDS011;11820;48.738;9.092;2023-04-06T04:37:59;9.03;;;6.90;;
23302;SDS011;11820;48.738;9.092;2023-04-06T04:40:25;9.47;;;6.97;;
23302;SDS011;11820;48.738;9.092;2023-04-06T04:42:50;7.67;;;6.73;;
23302;SDS011;11820;48.738;9.092;2023-04-06T04:45:18;8.00;;;6.83;;
23302;SDS011;11820;48.738;9.092;2023-04-06T04:47:43;8.23;;;6.87;;
23302;SDS011;11820;48.738;9.092;2023-04-06T04:50:09;11.73;;;6.97;;
23302;SDS011;11820;48.738;9.092;2023-04-06T04:52:35;10.17;;;6.87;;
23302;SDS011;11820;48.738;9.092;2023-04-06T04:55:01;10.00;;;6.37;;
23302;SDS011;11820;48.738;9.092;2023-04-06T04:57:26;8.07;;;7.23;;
23302;SDS011;11820;48.738;9.092;2023-04-06T04:59:52;11.07;;;7.13;;
23302;SDS011;11820;48.738;9.092;2023-04-06T05:02:17;13.37;;;7.40;;
23302;SDS011;11820;48.738;9.092;2023-04-06T05:04:42;11.53;;;7.80;;
23302;SDS011;11820;48.738;9.092;2023-04-06T05:07:08;11.13;;;8.40;;
23302;SDS011;11820;48.738;9.092;2023-04-06T05:09:34;10.00;;;7.80;;
23302;SDS011;11820;48.738;9.092;2023-04-06T05:12:00;13.37;;;7.57;;
23302;SDS011;11820;48.738;9.092;2023-04-06T05:14:26;9.27;;;7.20;;
23302;SDS011;11820;48.738;9.092;2023-04-06T05:16:52;11.50;;;7.63;;
23302;SDS011;11820;48.738;9.092;2023-04-06T05:19:17;8.57;;;7.10;;
23302;SDS011;11820;48.738;9.092;2023-04-06T05:21:42;12.33;;;8.17;;
23302;SDS011;11820;48.738;9.092;2023-04-06T05:24:08;7.93;;;6.53;;
23302;SDS011;11820;48.738;9.092;2023-04-06T05:26:33;10.23;;;7.30;;
23302;SDS011;11820;48.738;9.092;2023-04-06T05:28:59;9.40;;;6.83;;
23302;SDS011;11820;48.738;9.092;2023-04-06T05:31:24;12.00;;;7.17;;
23302;SDS011;11820;48.738;9.092;2023-04-06T05:33:50;10.03;;;7.90;;
23302;SDS011;11820;48.738;9.092;2023-04-06T05:36:15;9.80;;;7.60;;
23302;SDS011;11820;48.738;9.092;2023-04-06T05:38:41;8.70;;;7.77;;
23302;SDS011;11820;48.738;9.092;2023-04-06T05:41:06;11.17;;;6.87;;
23302;SDS011;11820;48.738;9.092;2023-04-06T05:43:31;12.57;;;7.17;;
23302;SDS011;11820;48.738;9.092;2023-04-06T05:45:57;12.67;;;7.40;;
23302;SDS011;11820;48.738;9.092;2023-04-06T05:48:22;10.80;;;7.13;;
23302;SDS011;11820;48.738;9.092;2023-04-06T05:50:48;8.80;;;7.33;;
23302;SDS011;11820;48.738;9.092;2023-04-06T05:53:15;12.83;;;6.93;;
23302;SDS011;11820;48.738;9.092;2023-04-06T05:55:41;8.87;;;7.53;;
23302;SDS011;11820;48.738;9.092;2023-04-06T05:58:06;11.47;;;7.60;;
23302;SDS011;11820;48.738;9.092;2023-04-06T06:00:31;9.13;;;7.53;;
23302;SDS011;11820;48.738;9.092;2023-04-06T06:02:57;12.57;;;8.57;;
23302;SDS011;11820;48.738;9.092;2023-04-06T06:05:23;11.23;;;8.20;;
23302;SDS011;11820;48.738;9.092;2023-04-06T06:07:48;10.13;;;7.70;;
23302;SDS011;11820;48.738;9.092;2023-04-06T06:10:13;10.90;;;7.80;;
23302;SDS011;11820;48.738;9.092;2023-04-06T06:12:39;10.13;;;8.33;;
23302;SDS011;11820;48.738;9.092;2023-04-06T06:15:04;18.63;;;8.13;;
23302;SDS011;11820;48.738;9.092;2023-04-06T06:17:30;10.10;;;8.10;;
23302;SDS011;11820;48.738;9.092;2023-04-06T06:19:56;12.47;;;7.80;;
23302;SDS011;11820;48.738;9.092;2023-04-06T06:22:21;9.37;;;7.47;;
23302;SDS011;11820;48.738;9.092;2023-04-06T06:24:46;11.33;;;6.90;;
23302;SDS011;11820;48.738;9.092;2023-04-06T06:27:12;11.57;;;7.50;;
23302;SDS011;11820;48.738;9.092;2023-04-06T06:29:37;9.47;;;7.60;;
23302;SDS011;11820;48.738;9.092;2023-04-06T06:32:03;11.90;;;8.37;;
23302;SDS011;11820;48.738;9.092;2023-04-06T06:34:28;15.17;;;7.27;;
23302;SDS011;11820;48.738;9.092;2023-04-06T06:36:54;10.13;;;7.23;;
23302;SDS011;11820;48.738;9.092;2023-04-06T06:39:20;11.90;;;7.20;;
23302;SDS011;11820;48.738;9.092;2023-04-06T06:41:45;8.97;;;6.87;;
23302;SDS011;11820;48.738;9.092;2023-04-06T06:44:11;8.57;;;7.67;;
23302;SDS011;11820;48.738;9.092;2023-04-06T06:46:36;11.10;;;6.93;;
23302;SDS011;11820;48.738;9.092;2023-04-06T06:49:02;11.30;;;7.23;;
23302;SDS011;11820;48.738;9.092;2023-04-06T06:51:28;11.77;;;8.10;;
23302;SDS011;11820;48.738;9.092;2023-04-06T06:53:53;10.03;;;7.73;;
23302;SDS011;11820;48.738;9.092;2023-04-06T06:56:18;9.50;;;7.27;;
23302;SDS011;11820;48.738;9.092;2023-04-06T06:58:44;9.57;;;7.67;;
23302;SDS011;11820;48.738;9.092;2023-04-06T07:01:10;9.97;;;7.17;;
23302;SDS011;11820;48.738;9.092;2023-04-06T07:03:35;9.93;;;7.00;;
23302;SDS011;11820;48.738;9.092;2023-04-06T07:06:00;9.87;;;7.40;;
23302;SDS011;11820;48.738;9.092;2023-04-06T07:08:26;10.30;;;6.37;;
23302;SDS011;11820;48.738;9.092;2023-04-06T07:10:51;8.43;;;6.90;;
23302;SDS011;11820;48.738;9.092;2023-04-06T07:13:18;8.80;;;6.70;;
23302;SDS011;11820;48.738;9.092;2023-04-06T07:15:47;9.33;;;6.80;;
23302;SDS011;11820;48.738;9.092;2023-04-06T07:18:13;8.03;;;6.73;;
23302;SDS011;11820;48.738;9.092;2023-04-06T07:20:39;8.17;;;6.50;;
23302;SDS011;11820;48.738;9.092;2023-04-06T07:23:04;9.17;;;6.77;;
23302;SDS011;11820;48.738;9.092;2023-04-06T07:25:30;8.63;;;7.00;;
23302;SDS011;11820;48.738;9.092;2023-04-06T07:27:55;9.10;;;7.20;;
23302;SDS011;11820;48.738;9.092;2023-04-06T07:30:21;9.50;;;7.03;;
23302;SDS011;11820;48.738;9.092;2023-04-06T07:32:47;8.90;;;8.00;;
23302;SDS011;11820;48.738;9.092;2023-04-06T07:35:13;8.63;;;7.07;;
23302;SDS011;11820;48.738;9.092;2023-04-06T07:37:38;10.30;;;7.30;;
23302;SDS011;11820;48.738;9.092;2023-04-06T07:40:03;9.00;;;7.33;;
23302;SDS011;11820;48.738;9.092;2023-04-06T07:42:29;8.17;;;6.90;;
23302;SDS011;11820;48.738;9.092;2023-04-06T07:44:55;9.40;;;7.30;;
23302;SDS011;11820;48.738;9.092;2023-04-06T07:47:20;9.43;;;7.07;;
23302;SDS011;11820;48.738;9.092;2023-04-06T07:49:46;11.13;;;7.17;;
23302;SDS011;11820;48.738;9.092;2023-04-06T07:52:11;8.37;;;7.53;;
23302;SDS011;11820;48.738;9.092;2023-04-06T07:54:36;9.67;;;7.30;;
23302;SDS011;11820;48.738;9.092;2023-04-06T07:57:02;8.73;;;6.53;;
23302;SDS011;11820;48.738;9.092;2023-04-06T07:59:27;9.93;;;6.50;;
23302;SDS011;11820;48.738;9.092;2023-04-06T08:01:52;12.07;;;7.37;;
23302;SDS011;11820;48.738;9.092;2023-04-06T08:04:18;7.57;;;6.60;;
23302;SDS011;11820;48.738;9.092;2023-04-06T08:06:43;6.87;;;5.93;;
23302;SDS011;11820;48.738;9.092;2023-04-06T08:09:08;11.60;;;7.23;;
23302;SDS011;11820;48.738;9.092;2023-04-06T08:11:34;9.07;;;7.03;;
23302;SDS011;11820;48.738;9.092;2023-04-06T08:13:59;7.97;;;7.10;;
23302;SDS011;11820;48.738;9.092;2023-04-06T08:16:24;8.73;;;7.03;;
23302;SDS011;11820;48.738;9.092;2023-04-06T08:18:50;9.90;;;7.90;;
23302;SDS011;11820;48.738;9.092;2023-04-06T08:21:15;8.27;;;7.30;;
23302;SDS011;11820;48.738;9.092;2023-04-06T08:23:41;10.10;;;8.63;;
23302;SDS011;11820;48.738;9.092;2023-04-06T08:26:06;10.53;;;7.80;;
23302;SDS011;11820;48.738;9.092;2023-04-06T08:28:31;7.90;;;7.00;;
23302;SDS011;11820;48.738;9.092;2023-04-06T08:30:59;9.60;;;7.83;;
23302;SDS011;11820;48.738;9.092;2023-04-06T08:33:28;8.73;;;7.33;;
23302;SDS011;11820;48.738;9.092;2023-04-06T08:35:53;7.47;;;6.63;;
23302;SDS011;11820;48.738;9.092;2023-04-06T08:38:19;8.50;;;6.37;;
23302;SDS011;11820;48.738;9.092;2023-04-06T08:40:44;7.77;;;6.97;;
23302;SDS011;11820;48.738;9.092;2023-04-06T08:43:13;7.50;;;6.70;;
23302;SDS011;11820;48.738;9.092;2023-04-06T08:45:40;9.10;;;6.97;;
23302;SDS011;11820;48.738;9.092;2023-04-06T08:48:05;10.90;;;7.70;;
23302;SDS011;11820;48.738;9.092;2023-04-06T08:50:32;9.27;;;7.67;;
23302;SDS011;11820;48.738;9.092;2023-04-06T08:52:57;9.07;;;7.60;;
23302;SDS011;11820;48.738;9.092;2023-04-06T08:55:24;8.37;;;7.43;;
23302;SDS011;11820;48.738;9.092;2023-04-06T08:57:50;8.50;;;7.40;;
23302;SDS011;11820;48.738;9.092;2023-04-06T09:00:18;10.70;;;7.40;;
23302;SDS011;11820;48.738;9.092;2023-04-06T09:02:45;9.47;;;7.73;;
23302;SDS011;11820;48.738;9.092;2023-04-06T09:05:11;9.13;;;7.20;;
23302;SDS011;11820;48.738;9.092;2023-04-06T09:07:38;9.57;;;7.57;;
23302;SDS011;11820;48.738;9.092;2023-04-06T09:10:07;8.77;;;7.72;;
23302;SDS011;11820;48.738;9.092;2023-04-06T09:12:35;11.23;;;7.60;;
23302;SDS011;11820;48.738;9.092;2023-04-06T09:15:01;8.57;;;6.97;;
23302;SDS011;11820;48.738;9.092;2023-04-06T09:17:27;8.33;;;7.03;;
23302;SDS011;11820;48.738;9.092;2023-04-06T09:20:02;9.03;;;6.63;;
23302;SDS011;11820;48.738;9.092;2023-04-06T09:22:37;7.17;;;6.30;;
23302;SDS011;11820;48.738;9.092;2023-04-06T09:25:03;12.40;;;7.77;;
23302;SDS011;11820;48.738;9.092;2023-04-06T09:27:30;7.57;;;6.77;;
23302;SDS011;11820;48.738;9.092;2023-04-06T09:30:03;8.97;;;6.57;;
23302;SDS011;11820;48.738;9.092;2023-04-06T09:32:28;8.97;;;7.13;;
23302;SDS011;11820;48.738;9.092;2023-04-06T09:34:54;8.67;;;6.87;;
23302;SDS011;11820;48.738;9.092;2023-04-06T09:37:30;8.43;;;6.67;;
23302;SDS011;11820;48.738;9.092;2023-04-06T09:40:02;7.80;;;6.83;;
23302;SDS011;11820;48.738;9.092;2023-04-06T09:42:32;9.80;;;6.83;;
23302;SDS011;11820;48.738;9.092;2023-04-06T09:44:57;9.53;;;7.30;;
23302;SDS011;11820;48.738;9.092;2023-04-06T09:47:23;8.83;;;6.73;;
23302;SDS011;11820;48.738;9.092;2023-04-06T09:49:51;8.03;;;6.60;;
23302;SDS011;11820;48.738;9.092;2023-04-06T09:52:21;8.60;;;6.73;;
23302;SDS011;11820;48.738;9.092;2023-04-06T09:54:49;6.93;;;5.90;;
23302;SDS011;11820;48.738;9.092;2023-04-06T09:57:25;7.87;;;6.83;;
23302;SDS011;11820;48.738;9.092;2023-04-06T10:02:41;8.00;;;7.00;;
23302;SDS011;11820;48.738;9.092;2023-04-06T10:05:19;7.13;;;6.43;;
23302;SDS011;11820;48.738;9.092;2023-04-06T10:07:47;8.27;;;6.13;;
23302;SDS011;11820;48.738;9.092;2023-04-06T10:10:16;8.13;;;6.10;;
23302;SDS011;11820;48.738;9.092;2023-04-06T10:12:41;7.83;;;6.73;;
23302;SDS011;11820;48.738;9.092;2023-04-06T10:15:09;9.57;;;7.03;;
23302;SDS011;11820;48.738;9.092;2023-04-06T10:17:35;7.80;;;6.47;;
23302;SDS011;11820;48.738;9.092;2023-04-06T10:20:09;7.43;;;6.73;;
23302;SDS011;11820;48.738;9.092;2023-04-06T10:22:49;7.10;;;6.40;;
23302;SDS011;11820;48.738;9.092;2023-04-06T10:25:30;6.97;;;5.80;;
23302;SDS011;11820;48.738;9.092;2023-04-06T10:28:06;8.43;;;7.40;;
23302;SDS011;11820;48.738;9.092;2023-04-06T10:30:34;10.63;;;7.57;;
23302;SDS011;11820;48.738;9.092;2023-04-06T10:33:39;7.40;;;6.60;;
23302;SDS011;11820;48.738;9.092;2023-04-06T10:35:58;7.50;;;6.30;;
23302;SDS011;11820;48.738;9.092;2023-04-06T10:38:38;7.60;;;6.70;;
23302;SDS011;11820;48.738;9.092;2023-04-06T10:41:05;9.93;;;7.37;;
23302;SDS011;11820;48.738;9.092;2023-04-06T10:43:35;6.97;;;6.30;;
23302;SDS011;11820;48.738;9.092;2023-04-06T10:46:01;8.83;;;7.00;;
23302;SDS011;11820;48.738;9.092;2023-04-06T10:51:12;8.20;;;6.30;;
23302;SDS011;11820;48.738;9.092;2023-04-06T10:53:40;7.73;;;5.90;;
23302;SDS011;11820;48.738;9.092;2023-04-06T10:56:09;7.10;;;6.23;;
23302;SDS011;11820;48.738;9.092;2023-04-06T10:58:36;7.60;;;6.23;;
23302;SDS011;11820;48.738;9.092;2023-04-06T11:01:02;6.10;;;5.37;;
23302;SDS011;11820;48.738;9.092;2023-04-06T11:03:28;6.40;;;5.77;;
23302;SDS011;11820;48.738;9.092;2023-04-06T11:05:53;7.20;;;6.50;;
23302;SDS011;11820;48.738;9.092;2023-04-06T11:08:32;8.63;;;6.23;;
23302;SDS011;11820;48.738;9.092;2023-04-06T11:11:08;10.43;;;6.50;;
23302;SDS011;11820;48.738;9.092;2023-04-06T11:16:23;8.53;;;6.37;;
23302;SDS011;11820;48.738;9.092;2023-04-06T11:29:22;7.03;;;6.30;;
23302;SDS011;11820;48.738;9.092;2023-04-06T11:31:49;8.20;;;5.83;;
23302;SDS011;11820;48.738;9.092;2023-04-06T11:34:22;7.93;;;6.20;;
23302;SDS011;11820;48.738;9.092;2023-04-06T11:36:49;6.43;;;5.83;;
23302;SDS011;11820;48.738;9.092;2023-04-06T11:39:20;8.73;;;5.97;;
23302;SDS011;11820;48.738;9.092;2023-04-06T11:41:48;7.10;;;6.13;;
23302;SDS011;11820;48.738;9.092;2023-04-06T11:44:14;9.90;;;6.23;;
23302;SDS011;11820;48.738;9.092;2023-04-06T11:46:40;6.57;;;5.97;;
23302;SDS011;11820;48.738;9.092;2023-04-06T11:49:05;8.07;;;6.37;;
23302;SDS011;11820;48.738;9.092;2023-04-06T11:51:35;7.10;;;6.40;;
23302;SDS011;11820;48.738;9.092;2023-04-06T11:54:01;6.50;;;5.80;;
23302;SDS011;11820;48.738;9.092;2023-04-06T11:56:28;6.73;;;5.73;;
23302;SDS011;11820;48.738;9.092;2023-04-06T11:58:55;5.97;;;5.47;;
23302;SDS011;11820;48.738;9.092;2023-04-06T12:01:22;6.37;;;5.77;;
23302;SDS011;11820;48.738;9.092;2023-04-06T12:03:52;7.20;;;6.10;;
23302;SDS011;11820;48.738;9.092;2023-04-06T12:06:17;7.07;;;6.38;;
23302;SDS011;11820;48.738;9.092;2023-04-06T12:08:43;7.03;;;6.33;;
23302;SDS011;11820;48.738;9.092;2023-04-06T12:11:09;7.43;;;6.13;;
23302;SDS011;11820;48.738;9.092;2023-04-06T12:13:35;9.60;;;6.03;;
23302;SDS011;11820;48.738;9.092;2023-04-06T12:16:00;7.27;;;5.90;;
23302;SDS011;11820;48.738;9.092;2023-04-06T12:18:25;6.60;;;5.90;;
23302;SDS011;11820;48.738;9.092;2023-04-06T12:20:51;6.93;;;6.17;;
23302;SDS011;11820;48.738;9.092;2023-04-06T12:23:17;6.50;;;5.63;;
23302;SDS011;11820;48.738;9.092;2023-04-06T12:25:43;7.30;;;5.90;;
23302;SDS011;11820;48.738;9.092;2023-04-06T12:28:09;9.40;;;6.10;;
23302;SDS011;11820;48.738;9.092;2023-04-06T12:30:34;7.33;;;5.60;;
23302;SDS011;11820;48.738;9.092;2023-04-06T12:33:00;5.97;;;5.37;;
23302;SDS011;11820;48.738;9.092;2023-04-06T12:35:26;8.10;;;4.97;;
23302;SDS011;11820;48.738;9.092;2023-04-06T12:37:51;6.90;;;5.80;;
23302;SDS011;11820;48.738;9.092;2023-04-06T12:40:17;7.03;;;6.33;;
23302;SDS011;11820;48.738;9.092;2023-04-06T12:42:42;6.30;;;5.70;;
23302;SDS011;11820;48.738;9.092;2023-04-06T12:45:08;6.27;;;5.67;;
23302;SDS011;11820;48.738;9.092;2023-04-06T12:47:34;7.40;;;6.37;;
23302;SDS011;11820;48.738;9.092;2023-04-06T12:50:01;8.07;;;6.67;;
23302;SDS011;11820;48.738;9.092;2023-04-06T12:52:26;6.87;;;5.97;;
23302;SDS011;11820;48.738;9.092;2023-04-06T12:54:55;7.30;;;5.73;;
23302;SDS011;11820;48.738;9.092;2023-04-06T12:57:20;7.90;;;6.07;;
23302;SDS011;11820;48.738;9.092;2023-04-06T12:59:46;8.27;;;6.53;;
23302;SDS011;11820;48.738;9.092;2023-04-06T13:02:12;7.70;;;6.03;;
23302;SDS011;11820;48.738;9.092;2023-04-06T13:04:37;6.13;;;5.53;;
23302;SDS011;11820;48.738;9.092;2023-04-06T13:07:02;6.67;;;5.43;;
23302;SDS011;11820;48.738;9.092;2023-04-06T13:09:28;6.53;;;5.73;;
23302;SDS011;11820;48.738;9.092;2023-04-06T13:11:53;7.30;;;5.93;;
23302;SDS011;11820;48.738;9.092;2023-04-06T13:14:18;5.90;;;5.30;;
23302;SDS011;11820;48.738;9.092;2023-04-06T13:16:44;7.63;;;6.00;;
23302;SDS011;11820;48.738;9.092;2023-04-06T13:19:09;6.27;;;5.57;;
23302;SDS011;11820;48.738;9.092;2023-04-06T13:21:35;8.27;;;5.27;;
23302;SDS011;11820;48.738;9.092;2023-04-06T13:24:01;6.43;;;5.27;;
23302;SDS011;11820;48.738;9.092;2023-04-06T13:26:26;5.50;;;4.80;;
23302;SDS011;11820;48.738;9.092;2023-04-06T13:28:51;5.77;;;4.70;;
23302;SDS011;11820;48.738;9.092;2023-04-06T13:31:17;5.63;;;4.97;;
23302;SDS011;11820;48.738;9.092;2023-04-06T13:33:42;5.37;;;4.90;;
23302;SDS011;11820;48.738;9.092;2023-04-06T13:36:07;5.50;;;4.97;;
23302;SDS011;11820;48.738;9.092;2023-04-06T13:38:33;5.50;;;5.00;;
23302;SDS011;11820;48.738;9.092;2023-04-06T13:40:58;7.07;;;5.33;;
23302;SDS011;11820;48.738;9.092;2023-04-06T13:43:24;5.80;;;5.20;;
23302;SDS011;11820;48.738;9.092;2023-04-06T13:45:54;5.77;;;4.80;;
23302;SDS011;11820;48.738;9.092;2023-04-06T13:48:20;6.70;;;5.20;;
23302;SDS011;11820;48.738;9.092;2023-04-06T13:50:46;4.90;;;4.50;;
23302;SDS011;11820;48.738;9.092;2023-04-06T13:53:12;7.93;;;5.53;;
23302;SDS011;11820;48.738;9.092;2023-04-06T13:55:38;6.47;;;5.70;;
23302;SDS011;11820;48.738;9.092;2023-04-06T13:58:03;6.63;;;5.90;;
23302;SDS011;11820;48.738;9.092;2023-04-06T14:00:28;7.83;;;5.47;;
23302;SDS011;11820;48.738;9.092;2023-04-06T14:02:54;10.67;;;6.07;;
23302;SDS011;11820;48.738;9.092;2023-04-06T14:05:20;6.43;;;5.70;;
23302;SDS011;11820;48.738;9.092;2023-04-06T14:07:45;6.17;;;5.57;;
23302;SDS011;11820;48.738;9.092;2023-04-06T14:10:11;6.23;;;5.33;;
23302;SDS011;11820;48.738;9.092;2023-04-06T14:12:42;7.77;;;5.77;;
23302;SDS011;11820;48.738;9.092;2023-04-06T14:15:10;5.67;;;5.17;;
23302;SDS011;11820;48.738;9.092;2023-04-06T14:17:36;8.63;;;5.37;;
23302;SDS011;11820;48.738;9.092;2023-04-06T14:20:02;6.80;;;5.80;;
23302;SDS011;11820;48.738;9.092;2023-04-06T14:22:28;7.10;;;6.03;;
23302;SDS011;11820;48.738;9.092;2023-04-06T14:24:53;5.93;;;5.27;;
23302;SDS011;11820;48.738;9.092;2023-04-06T14:27:18;7.07;;;6.27;;
23302;SDS011;11820;48.738;9.092;2023-04-06T14:29:44;7.70;;;5.70;;
23302;SDS011;11820;48.738;9.092;2023-04-06T14:32:09;6.10;;;5.50;;
23302;SDS011;11820;48.738;9.092;2023-04-06T14:34:37;7.07;;;5.30;;
23302;SDS011;11820;48.738;9.092;2023-04-06T14:37:03;5.40;;;4.90;;
23302;SDS011;11820;48.738;9.092;2023-04-06T14:39:28;5.37;;;4.83;;
23302;SDS011;11820;48.738;9.092;2023-04-06T14:41:53;5.67;;;4.00;;
23302;SDS011;11820;48.738;9.092;2023-04-06T14:44:19;4.40;;;4.00;;
23302;SDS011;11820;48.738;9.092;2023-04-06T14:46:45;6.50;;;3.83;;
23302;SDS011;11820;48.738;9.092;2023-04-06T14:49:10;8.27;;;4.67;;
23302;SDS011;11820;48.738;9.092;2023-04-06T14:51:36;6.57;;;3.77;;
23302;SDS011;11820;48.738;9.092;2023-04-06T14:54:01;5.20;;;4.07;;
23302;SDS011;11820;48.738;9.092;2023-04-06T14:56:30;4.50;;;4.10;;
23302;SDS011;11820;48.738;9.092;2023-04-06T14:58:57;4.93;;;4.53;;